Time;durP1;ratioP1;P1;durP2;ratioP2;P2;SDS_P1;SDS_P2;PMS_P1;PMS_P2;Temp;Humidity;BMP_temperature;BMP_pressure;BME280_temperature;BME280_humidity;BME280_pressure;Samples;Min_cycle;Max_cycle;Signal;HPM_P1;HPM_P2
2022/07/06 00:02:02;;;;;;;;;;;26.20;38.40;;;;;;6200194;23;19924;-81
2022/07/06 00:04:29;;;;;;;;;;;26.30;38.10;;;;;;6195812;23;19921;-81
2022/07/06 00:06:57;;;;;;;;;;;26.30;37.70;;;;;;6182460;23;19926;-81
2022/07/06 00:09:24;;;;;;;;;;;26.30;38.00;;;;;;6210467;23;19924;-81
2022/07/06 00:11:51;;;;;;;;;;;26.20;37.50;;;;;;6212647;23;19954;-81
2022/07/06 00:14:17;;;;;;;;;;;26.30;37.80;;;;;;6210139;23;20345;-81
2022/07/06 00:16:44;;;;;;;;;;;26.20;37.90;;;;;;6201660;23;19920;-81
2022/07/06 00:19:11;;;;;;;;;;;26.20;37.70;;;;;;6211876;23;19927;-81
2022/07/06 00:21:38;;;;;;;;;;;26.20;37.30;;;;;;6213746;23;19924;-81
2022/07/06 00:24:05;;;;;;;;;;;26.20;37.40;;;;;;6190852;23;19986;-82
2022/07/06 00:26:32;;;;;;;;;;;26.30;37.90;;;;;;6196907;23;19927;-81
2022/07/06 00:28:59;;;;;;;;;;;26.30;36.60;;;;;;6188434;23;19920;-81
2022/07/06 00:31:26;;;;;;;;;;;26.30;37.10;;;;;;6183484;23;19940;-81
2022/07/06 00:33:53;;;;;;;;;;;26.30;36.80;;;;;;6184174;23;19932;-81
2022/07/06 00:36:19;;;;;;;;;;;26.30;36.60;;;;;;6200980;23;19983;-80
2022/07/06 00:38:46;;;;;;;;;;;26.30;36.60;;;;;;6195254;23;19920;-81
2022/07/06 00:41:13;;;;;;;;;;;26.30;36.70;;;;;;6195915;23;20403;-81
2022/07/06 00:43:55;;;;;;;;;;;26.20;36.60;;;;;;6183873;23;19920;-81
2022/07/06 00:46:23;;;;;;;;;;;26.20;37.00;;;;;;6184559;23;19921;-81
2022/07/06 00:48:49;;;;;;;;;;;26.10;37.20;;;;;;6194923;23;19927;-78
2022/07/06 00:51:17;;;;;;;;;;;26.10;37.10;;;;;;6195853;23;19928;-78
2022/07/06 00:53:44;;;;;;;;;;;26.00;37.20;;;;;;6201329;23;20403;-80
2022/07/06 00:56:11;;;;;;;;;;;26.00;37.00;;;;;;6215243;23;19924;-81
2022/07/06 00:58:38;;;;;;;;;;;26.00;37.20;;;;;;6213323;23;19927;-80
2022/07/06 01:01:05;;;;;;;;;;;26.00;36.90;;;;;;6213620;23;19920;-80
2022/07/06 01:03:32;;;;;;;;;;;26.10;36.70;;;;;;6213554;23;19927;-81
2022/07/06 01:05:59;;;;;;;;;;;26.10;36.60;;;;;;6213349;23;20342;-81
2022/07/06 01:08:26;;;;;;;;;;;26.10;37.00;;;;;;6213196;23;19924;-81
2022/07/06 01:10:53;;;;;;;;;;;26.00;37.20;;;;;;6213800;23;20260;-80
2022/07/06 01:13:20;;;;;;;;;;;25.90;37.20;;;;;;6213537;23;20298;-80
2022/07/06 01:15:46;;;;;;;;;;;25.90;37.10;;;;;;6212966;23;19927;-80
2022/07/06 01:18:13;;;;;;;;;;;25.90;37.30;;;;;;6213497;23;19970;-81
2022/07/06 01:20:40;;;;;;;;;;;25.90;37.50;;;;;;6213156;23;19920;-81
2022/07/06 01:23:07;;;;;;;;;;;25.80;37.70;;;;;;6213801;23;19970;-81
2022/07/06 01:25:34;;;;;;;;;;;25.70;37.60;;;;;;6212951;23;20252;-80
2022/07/06 01:28:01;;;;;;;;;;;25.70;37.60;;;;;;6213776;23;19924;-81
2022/07/06 01:30:28;;;;;;;;;;;25.60;37.90;;;;;;6215189;23;19923;-81
2022/07/06 01:32:54;;;;;;;;;;;25.60;37.90;;;;;;6213533;23;19970;-81
2022/07/06 01:35:22;;;;;;;;;;;25.60;37.70;;;;;;6213905;23;19973;-81
2022/07/06 01:37:48;;;;;;;;;;;25.60;37.60;;;;;;6212669;23;20453;-81
2022/07/06 01:40:15;;;;;;;;;;;25.60;37.70;;;;;;6214023;23;19967;-81
2022/07/06 01:42:42;;;;;;;;;;;25.50;38.10;;;;;;6212771;23;19920;-80
2022/07/06 01:45:09;;;;;;;;;;;25.40;38.50;;;;;;6213807;23;19923;-81
2022/07/06 01:47:36;;;;;;;;;;;25.40;38.50;;;;;;6212458;23;20006;-81
2022/07/06 01:50:05;;;;;;;;;;;25.30;38.80;;;;;;6212561;23;19943;-81
2022/07/06 01:52:31;;;;;;;;;;;25.20;39.00;;;;;;6213437;23;19982;-81
2022/07/06 01:54:58;;;;;;;;;;;25.10;39.20;;;;;;6212626;23;20285;-81
2022/07/06 01:57:25;;;;;;;;;;;25.10;39.40;;;;;;6214449;23;20408;-81
2022/07/06 01:59:52;;;;;;;;;;;25.10;39.40;;;;;;6213033;23;19920;-80
2022/07/06 02:02:18;;;;;;;;;;;25.10;39.20;;;;;;6215046;23;20341;-89
2022/07/06 02:04:45;;;;;;;;;;;25.10;38.30;;;;;;6218390;23;19920;-90
2022/07/06 02:07:12;;;;;;;;;;;25.10;38.50;;;;;;6217218;23;19923;-88
2022/07/06 02:09:39;;;;;;;;;;;25.20;38.60;;;;;;6217122;23;20304;-87
2022/07/06 02:12:05;;;;;;;;;;;25.20;37.90;;;;;;6216947;23;19927;-90
2022/07/06 02:14:32;;;;;;;;;;;25.40;37.40;;;;;;6217092;23;19924;-89
2022/07/06 02:16:59;;;;;;;;;;;25.40;37.70;;;;;;6185895;23;19924;-89
2022/07/06 02:19:26;;;;;;;;;;;25.40;37.70;;;;;;6186903;23;19995;-90
2022/07/06 02:21:53;;;;;;;;;;;25.40;37.70;;;;;;6183962;23;19920;-91
2022/07/06 02:24:19;;;;;;;;;;;25.40;37.80;;;;;;6187622;23;20353;-89
2022/07/06 02:26:46;;;;;;;;;;;25.40;38.10;;;;;;6187507;23;19928;-91
2022/07/06 02:29:13;;;;;;;;;;;25.30;38.30;;;;;;6187912;23;20318;-89
2022/07/06 02:31:40;;;;;;;;;;;25.30;38.90;;;;;;6189711;23;19924;-90
2022/07/06 02:34:06;;;;;;;;;;;25.20;38.50;;;;;;6184777;23;19928;-90
2022/07/06 02:36:33;;;;;;;;;;;25.20;38.90;;;;;;6199080;23;19948;-90
2022/07/06 02:39:00;;;;;;;;;;;25.10;38.90;;;;;;6211585;23;19919;-88
2022/07/06 02:41:27;;;;;;;;;;;25.10;39.00;;;;;;6193009;23;19921;-88
2022/07/06 02:43:53;;;;;;;;;;;25.10;39.60;;;;;;6195920;23;19924;-89
2022/07/06 02:46:20;;;;;;;;;;;25.00;39.70;;;;;;6204398;23;19985;-87
2022/07/06 02:48:47;;;;;;;;;;;24.90;39.40;;;;;;6215702;23;20256;-90
2022/07/06 02:51:14;;;;;;;;;;;24.90;39.10;;;;;;6215861;23;20412;-89
2022/07/06 02:53:41;;;;;;;;;;;24.90;40.20;;;;;;6191383;23;20269;-89
2022/07/06 02:56:07;;;;;;;;;;;24.90;38.90;;;;;;6196843;23;19924;-89
2022/07/06 02:58:34;;;;;;;;;;;24.90;38.70;;;;;;6205060;23;19969;-88
2022/07/06 03:01:01;;;;;;;;;;;24.90;39.10;;;;;;6212690;23;20337;-81
2022/07/06 03:03:28;;;;;;;;;;;24.90;39.10;;;;;;6194337;23;19926;-81
2022/07/06 03:05:55;;;;;;;;;;;24.90;38.70;;;;;;6183419;23;19920;-82
2022/07/06 03:08:22;;;;;;;;;;;24.90;38.40;;;;;;6212728;23;19920;-80
2022/07/06 03:10:49;;;;;;;;;;;24.90;38.40;;;;;;6213059;23;19920;-81
2022/07/06 03:13:16;;;;;;;;;;;24.90;38.60;;;;;;6196440;23;19924;-81
2022/07/06 03:15:43;;;;;;;;;;;24.90;38.40;;;;;;6183009;23;20233;-80
2022/07/06 03:18:09;;;;;;;;;;;24.90;39.20;;;;;;6185164;23;19951;-82
2022/07/06 03:20:36;;;;;;;;;;;24.90;38.90;;;;;;6212964;23;20003;-81
2022/07/06 03:23:03;;;;;;;;;;;24.80;39.10;;;;;;6211814;23;20391;-81
2022/07/06 03:25:30;;;;;;;;;;;24.70;39.70;;;;;;6193430;23;19935;-81
2022/07/06 03:27:56;;;;;;;;;;;24.60;39.70;;;;;;6195346;23;19966;-81
2022/07/06 03:30:23;;;;;;;;;;;24.60;40.50;;;;;;6194717;23;20252;-80
2022/07/06 03:32:50;;;;;;;;;;;24.40;40.40;;;;;;6205867;23;19946;-81
2022/07/06 03:35:17;;;;;;;;;;;24.30;41.80;;;;;;6211849;23;19919;-81
2022/07/06 03:37:43;;;;;;;;;;;24.20;42.00;;;;;;6193319;23;20234;-81
2022/07/06 03:40:11;;;;;;;;;;;24.10;42.80;;;;;;6183195;23;19974;-81
2022/07/06 03:42:37;;;;;;;;;;;24.00;43.20;;;;;;6212880;23;19924;-81
2022/07/06 03:45:04;;;;;;;;;;;23.90;45.30;;;;;;6201702;23;19974;-82
2022/07/06 03:47:31;;;;;;;;;;;23.80;46.40;;;;;;6219551;23;19971;-80
2022/07/06 03:49:58;;;;;;;;;;;23.70;46.80;;;;;;6182716;23;19920;-81
2022/07/06 03:52:25;;;;;;;;;;;23.60;47.60;;;;;;6210505;23;19924;-82
2022/07/06 03:54:51;;;;;;;;;;;23.50;48.00;;;;;;6212847;23;19986;-80
2022/07/06 03:57:18;;;;;;;;;;;23.40;48.70;;;;;;6213984;23;19920;-82
2022/07/06 03:59:45;;;;;;;;;;;23.30;48.20;;;;;;6214708;23;19966;-82
2022/07/06 04:02:11;;;;;;;;;;;23.30;48.00;;;;;;6213886;23;19920;-82
2022/07/06 04:04:38;;;;;;;;;;;23.20;47.80;;;;;;6214657;23;19924;-80
2022/07/06 04:07:05;;;;;;;;;;;23.20;48.50;;;;;;6214790;23;19924;-82
2022/07/06 04:09:32;;;;;;;;;;;23.10;48.60;;;;;;6209280;23;19935;-81
2022/07/06 04:11:59;;;;;;;;;;;23.10;49.10;;;;;;6206387;23;19956;-80
2022/07/06 04:14:27;;;;;;;;;;;23.10;49.10;;;;;;6213601;23;19970;-81
2022/07/06 04:16:53;;;;;;;;;;;23.10;49.10;;;;;;6193320;23;19921;-79
2022/07/06 04:19:20;;;;;;;;;;;23.00;48.40;;;;;;6195976;23;20417;-81
2022/07/06 04:21:47;;;;;;;;;;;23.00;47.70;;;;;;6184621;23;19921;-81
2022/07/06 04:24:14;;;;;;;;;;;23.00;47.10;;;;;;6208429;23;20349;-84
2022/07/06 04:26:41;;;;;;;;;;;23.00;46.80;;;;;;6198180;23;19924;-81
2022/07/06 04:29:07;;;;;;;;;;;23.00;46.50;;;;;;6184392;23;19920;-80
2022/07/06 04:31:34;;;;;;;;;;;23.10;45.20;;;;;;6212684;23;19931;-81
2022/07/06 04:34:01;;;;;;;;;;;23.10;45.20;;;;;;6214278;23;19920;-81
2022/07/06 04:36:28;;;;;;;;;;;23.10;45.50;;;;;;6213691;23;20333;-81
2022/07/06 04:38:54;;;;;;;;;;;23.10;46.10;;;;;;6215197;23;19924;-82
2022/07/06 04:41:21;;;;;;;;;;;23.10;46.10;;;;;;6213782;23;20288;-81
2022/07/06 04:43:48;;;;;;;;;;;23.10;46.80;;;;;;6214139;23;19923;-79
2022/07/06 04:46:14;;;;;;;;;;;23.10;47.20;;;;;;6189894;23;19924;-80
2022/07/06 04:48:42;;;;;;;;;;;23.10;46.90;;;;;;6195433;23;19975;-82
2022/07/06 04:51:09;;;;;;;;;;;23.10;46.80;;;;;;6184749;23;19974;-81
2022/07/06 04:53:36;;;;;;;;;;;23.10;46.30;;;;;;6183342;23;19975;-81
2022/07/06 04:56:04;;;;;;;;;;;23.10;46.30;;;;;;6197639;23;19992;-81
2022/07/06 04:58:30;;;;;;;;;;;23.10;46.30;;;;;;6210696;23;19928;-82
2022/07/06 05:00:57;;;;;;;;;;;23.10;46.50;;;;;;6193615;23;19928;-81
2022/07/06 05:03:24;;;;;;;;;;;23.10;46.70;;;;;;6195858;23;19923;-82
2022/07/06 05:05:51;;;;;;;;;;;23.10;46.60;;;;;;6191258;23;19920;-81
2022/07/06 05:08:20;;;;;;;;;;;23.10;45.50;;;;;;6189599;23;20128;-81
2022/07/06 05:10:48;;;;;;;;;;;23.20;46.00;;;;;;6194901;23;20003;-81
2022/07/06 05:13:14;;;;;;;;;;;23.20;45.60;;;;;;6189471;23;19924;-80
2022/07/06 05:15:41;;;;;;;;;;;23.20;45.60;;;;;;6183091;23;19920;-79
2022/07/06 05:18:08;;;;;;;;;;;23.20;45.60;;;;;;6197653;23;19921;-79
2022/07/06 05:20:35;;;;;;;;;;;23.30;46.30;;;;;;6209652;23;19995;-79
2022/07/06 05:23:02;;;;;;;;;;;23.20;46.70;;;;;;6193252;23;19920;-79
2022/07/06 05:25:28;;;;;;;;;;;23.20;46.80;;;;;;6195649;23;19962;-79
2022/07/06 05:27:55;;;;;;;;;;;23.20;46.50;;;;;;6202365;23;19920;-80
2022/07/06 05:30:22;;;;;;;;;;;23.30;46.20;;;;;;6203185;23;19971;-79
2022/07/06 05:32:49;;;;;;;;;;;23.30;46.90;;;;;;6182920;23;19925;-79
2022/07/06 05:35:16;;;;;;;;;;;23.30;46.10;;;;;;6182892;23;19924;-79
2022/07/06 05:38:03;;;;;;;;;;;23.30;45.70;;;;;;6196495;23;19987;-81
2022/07/06 05:40:29;;;;;;;;;;;23.30;46.30;;;;;;6183398;23;19924;-81
2022/07/06 05:42:56;;;;;;;;;;;23.30;46.10;;;;;;6183352;23;19975;-79
2022/07/06 05:45:23;;;;;;;;;;;23.40;46.60;;;;;;6181763;23;19928;-80
2022/07/06 05:50:35;;;;;;;;;;;23.40;46.20;;;;;;6202293;23;19944;-81
2022/07/06 05:53:03;;;;;;;;;;;23.50;45.70;;;;;;6180990;23;19932;-80
2022/07/06 05:55:41;;;;;;;;;;;23.50;46.20;;;;;;6207355;23;19924;-80
2022/07/06 05:58:07;;;;;;;;;;;23.50;46.40;;;;;;6200150;23;19924;-81
2022/07/06 06:00:34;;;;;;;;;;;23.50;47.00;;;;;;6213529;23;20337;-81
2022/07/06 06:03:01;;;;;;;;;;;23.50;47.40;;;;;;6211984;23;19923;-81
2022/07/06 06:05:28;;;;;;;;;;;23.50;46.60;;;;;;6213075;23;19942;-84
2022/07/06 06:07:55;;;;;;;;;;;23.60;47.80;;;;;;6213407;23;19920;-80
2022/07/06 06:10:22;;;;;;;;;;;23.60;46.80;;;;;;6213397;23;19920;-81
2022/07/06 06:12:49;;;;;;;;;;;23.60;46.20;;;;;;6212960;23;19920;-81
2022/07/06 06:15:16;;;;;;;;;;;23.60;46.20;;;;;;6196638;23;19920;-81
2022/07/06 06:17:43;;;;;;;;;;;23.60;46.80;;;;;;6181796;23;19972;-81
2022/07/06 06:20:11;;;;;;;;;;;23.60;47.30;;;;;;6210139;23;19924;-81
2022/07/06 06:22:51;;;;;;;;;;;23.70;47.40;;;;;;6213598;23;19919;-81
2022/07/06 06:25:19;;;;;;;;;;;23.70;47.10;;;;;;6212071;23;19974;-81
2022/07/06 06:27:46;;;;;;;;;;;23.70;47.60;;;;;;6213414;23;19967;-80
2022/07/06 06:30:13;;;;;;;;;;;23.80;46.50;;;;;;6213201;23;19924;-79
2022/07/06 06:32:40;;;;;;;;;;;23.80;47.70;;;;;;6211791;23;20345;-81
2022/07/06 06:35:07;;;;;;;;;;;23.80;46.30;;;;;;6211408;23;20345;-80
2022/07/06 06:37:36;;;;;;;;;;;23.90;46.00;;;;;;6212312;23;19928;-80
2022/07/06 06:40:04;;;;;;;;;;;24.00;45.90;;;;;;6212371;23;19924;-80
2022/07/06 06:42:31;;;;;;;;;;;24.00;46.60;;;;;;6213135;23;19978;-81
2022/07/06 06:44:58;;;;;;;;;;;24.00;46.00;;;;;;6213263;23;19920;-81
2022/07/06 06:47:25;;;;;;;;;;;24.10;46.10;;;;;;6213113;23;19920;-81
2022/07/06 06:49:52;;;;;;;;;;;24.10;46.40;;;;;;6213110;23;19920;-81
2022/07/06 06:52:18;;;;;;;;;;;24.20;45.80;;;;;;6212078;23;19966;-81
2022/07/06 06:55:05;;;;;;;;;;;24.20;46.10;;;;;;6211989;23;19920;-80
2022/07/06 06:57:32;;;;;;;;;;;24.30;46.20;;;;;;6212992;23;19966;-81
2022/07/06 06:59:59;;;;;;;;;;;24.40;46.50;;;;;;6212482;23;19924;-81
2022/07/06 07:02:26;;;;;;;;;;;24.40;46.20;;;;;;6211843;23;19970;-80
2022/07/06 07:04:53;;;;;;;;;;;24.40;45.90;;;;;;6213209;23;19920;-80
2022/07/06 07:07:20;;;;;;;;;;;24.40;46.20;;;;;;6211744;23;19962;-80
2022/07/06 07:09:46;;;;;;;;;;;24.50;46.60;;;;;;6213946;23;19920;-80
2022/07/06 07:12:14;;;;;;;;;;;24.50;46.10;;;;;;6211117;23;19920;-81
2022/07/06 07:14:41;;;;;;;;;;;24.70;45.30;;;;;;6212610;23;19989;-80
2022/07/06 07:17:08;;;;;;;;;;;24.80;45.60;;;;;;6212609;23;19926;-80
2022/07/06 07:19:35;;;;;;;;;;;24.90;44.70;;;;;;6237198;23;19923;-80
2022/07/06 07:22:02;;;;;;;;;;;25.10;45.80;;;;;;6212621;23;19923;-80
2022/07/06 07:24:29;;;;;;;;;;;25.20;46.40;;;;;;6212069;23;19986;-80
2022/07/06 07:26:55;;;;;;;;;;;25.30;46.80;;;;;;6212083;23;19927;-80
2022/07/06 07:29:22;;;;;;;;;;;25.40;46.80;;;;;;6211127;23;19974;-80
2022/07/06 07:31:49;;;;;;;;;;;25.60;46.50;;;;;;6213049;23;19931;-84
2022/07/06 07:34:17;;;;;;;;;;;25.70;46.60;;;;;;6214699;23;19994;-81
2022/07/06 07:36:43;;;;;;;;;;;25.90;46.30;;;;;;6214993;23;19920;-80
2022/07/06 07:39:10;;;;;;;;;;;25.90;46.10;;;;;;6213869;23;19951;-80
2022/07/06 07:41:37;;;;;;;;;;;26.00;46.40;;;;;;6212864;23;19944;-82
2022/07/06 07:44:04;;;;;;;;;;;26.00;46.50;;;;;;6214637;23;19997;-81
2022/07/06 07:46:31;;;;;;;;;;;26.10;47.20;;;;;;6212872;23;20340;-80
2022/07/06 07:48:58;;;;;;;;;;;26.10;48.90;;;;;;6205605;23;19987;-80
2022/07/06 07:51:25;;;;;;;;;;;26.30;50.80;;;;;;6184181;23;20310;-80
2022/07/06 07:53:52;;;;;;;;;;;26.30;51.80;;;;;;6198086;23;19920;-80
2022/07/06 07:56:19;;;;;;;;;;;26.50;51.70;;;;;;6182581;23;19920;-82
2022/07/06 07:58:48;;;;;;;;;;;26.70;50.80;;;;;;6183297;23;19928;-80
2022/07/06 08:01:15;;;;;;;;;;;26.80;49.60;;;;;;6207607;23;20288;-82
2022/07/06 09:10:37;;;;;;;;;;;28.10;51.90;;;;;;6124785;23;19921;-79
2022/07/06 09:13:07;;;;;;;;;;;28.30;51.50;;;;;;6124648;23;22232;-80
2022/07/06 09:15:35;;;;;;;;;;;28.50;52.30;;;;;;6098401;23;19925;-79
2022/07/06 09:18:03;;;;;;;;;;;28.70;51.00;;;;;;6099691;23;19925;-79
2022/07/06 09:20:31;;;;;;;;;;;29.00;49.40;;;;;;6099848;23;20256;-79
2022/07/06 09:23:01;;;;;;;;;;;29.40;48.40;;;;;;6099793;23;20321;-86
2022/07/06 09:25:28;;;;;;;;;;;29.60;46.70;;;;;;6098983;23;19925;-81
2022/07/06 09:27:57;;;;;;;;;;;29.70;46.10;;;;;;6100230;23;19932;-86
2022/07/06 09:30:25;;;;;;;;;;;29.60;46.80;;;;;;6075852;23;20340;-85
2022/07/06 09:32:53;;;;;;;;;;;29.60;49.40;;;;;;6099492;23;19956;-79
2022/07/06 09:35:24;;;;;;;;;;;29.80;49.30;;;;;;6097848;23;19929;-79
2022/07/06 09:37:59;;;;;;;;;;;29.80;49.00;;;;;;6098765;23;19927;-79
2022/07/06 09:40:26;;;;;;;;;;;29.70;48.70;;;;;;6098654;23;19925;-81
2022/07/06 09:43:07;;;;;;;;;;;29.50;48.60;;;;;;6099239;23;19927;-85
2022/07/06 09:45:34;;;;;;;;;;;29.40;49.10;;;;;;6098243;23;19925;-79
2022/07/06 09:48:23;;;;;;;;;;;29.40;49.90;;;;;;6099165;23;20237;-78
2022/07/06 09:50:55;;;;;;;;;;;29.40;49.50;;;;;;6098181;23;20337;-79
2022/07/06 09:53:24;;;;;;;;;;;29.40;50.20;;;;;;6098466;23;19921;-79
2022/07/06 09:55:51;;;;;;;;;;;29.50;49.40;;;;;;6096309;23;19925;-84
2022/07/06 09:58:18;;;;;;;;;;;29.70;48.50;;;;;;6098565;23;19987;-79
2022/07/06 10:01:05;;;;;;;;;;;29.90;46.80;;;;;;6102318;23;19991;-79
2022/07/06 10:03:32;;;;;;;;;;;30.00;47.00;;;;;;6098259;23;19925;-86
2022/07/06 10:05:59;;;;;;;;;;;30.10;46.80;;;;;;6124197;23;19924;-79
2022/07/06 10:08:26;;;;;;;;;;;30.30;47.30;;;;;;6116655;23;19928;-85
2022/07/06 10:10:54;;;;;;;;;;;30.50;46.70;;;;;;6093094;23;20305;-84
2022/07/06 10:13:29;;;;;;;;;;;30.70;46.30;;;;;;6095443;23;19921;-78
2022/07/06 10:15:57;;;;;;;;;;;30.80;47.00;;;;;;6093553;23;19957;-81
2022/07/06 10:18:24;;;;;;;;;;;31.00;46.70;;;;;;6093633;23;19992;-80
2022/07/06 10:20:52;;;;;;;;;;;31.00;47.00;;;;;;6093108;23;19921;-78
2022/07/06 10:23:19;;;;;;;;;;;31.20;45.50;;;;;;6092915;23;20280;-85
2022/07/06 10:25:47;;;;;;;;;;;31.20;44.60;;;;;;6094128;23;19955;-85
2022/07/06 10:28:14;;;;;;;;;;;31.10;43.00;;;;;;6092983;23;19922;-79
2022/07/06 10:30:42;;;;;;;;;;;31.00;44.30;;;;;;6094048;23;19921;-79
2022/07/06 10:33:10;;;;;;;;;;;31.10;44.10;;;;;;6117746;23;19925;-79
2022/07/06 10:35:39;;;;;;;;;;;31.20;45.00;;;;;;6117935;23;19925;-79
2022/07/06 10:38:08;;;;;;;;;;;31.40;43.90;;;;;;6117517;23;19921;-81
2022/07/06 10:43:20;;;;;;;;;;;31.50;44.00;;;;;;6093984;23;19949;-84
2022/07/06 10:45:47;;;;;;;;;;;31.40;44.10;;;;;;6093548;23;19921;-84
2022/07/06 10:48:17;;;;;;;;;;;31.30;45.20;;;;;;6092762;23;19921;-79
2022/07/06 10:50:50;;;;;;;;;;;31.40;44.50;;;;;;6093828;23;20000;-81
2022/07/06 10:53:21;;;;;;;;;;;31.50;44.00;;;;;;6092824;23;19937;-86
2022/07/06 10:55:50;;;;;;;;;;;31.60;44.00;;;;;;6093441;23;19953;-79
2022/07/06 10:58:35;;;;;;;;;;;31.80;43.00;;;;;;6093520;23;19984;-81
2022/07/06 11:01:03;;;;;;;;;;;31.90;42.40;;;;;;6092624;23;19971;-80
2022/07/06 11:03:39;;;;;;;;;;;32.00;41.70;;;;;;6092916;23;19925;-85
2022/07/06 11:06:09;;;;;;;;;;;32.00;42.70;;;;;;6093126;23;19990;-81
2022/07/06 11:08:54;;;;;;;;;;;32.00;42.50;;;;;;6094643;23;19921;-81
2022/07/06 11:11:33;;;;;;;;;;;32.10;40.90;;;;;;6092887;23;20234;-80
2022/07/06 11:14:03;;;;;;;;;;;32.00;41.30;;;;;;6092728;23;19977;-81
2022/07/06 11:16:36;;;;;;;;;;;32.10;42.80;;;;;;6094460;23;19977;-79
2022/07/06 11:19:05;;;;;;;;;;;32.30;41.50;;;;;;6093816;23;19921;-82
2022/07/06 11:21:34;;;;;;;;;;;32.30;40.30;;;;;;6093562;23;19953;-86
2022/07/06 11:24:01;;;;;;;;;;;32.20;41.00;;;;;;6092402;23;19921;-78
2022/07/06 11:26:28;;;;;;;;;;;32.20;41.50;;;;;;6093232;23;19925;-78
2022/07/06 11:28:55;;;;;;;;;;;32.20;40.90;;;;;;6094120;23;19925;-80
2022/07/06 11:31:21;;;;;;;;;;;32.20;41.30;;;;;;6092807;23;19922;-81
2022/07/06 11:33:49;;;;;;;;;;;32.30;41.00;;;;;;6093273;23;19921;-85
2022/07/06 11:36:17;;;;;;;;;;;32.30;41.00;;;;;;6091951;23;19921;-78
2022/07/06 11:38:44;;;;;;;;;;;32.40;41.20;;;;;;6094661;23;20239;-79
2022/07/06 11:41:13;;;;;;;;;;;32.50;41.20;;;;;;6092410;23;19921;-79
2022/07/06 11:43:42;;;;;;;;;;;32.50;40.80;;;;;;6093189;23;19992;-85
2022/07/06 11:46:22;;;;;;;;;;;32.50;41.50;;;;;;6092944;23;19984;-81
2022/07/06 11:48:54;;;;;;;;;;;32.60;40.70;;;;;;6094582;23;19988;-84
2022/07/06 11:51:22;;;;;;;;;;;32.70;39.10;;;;;;6092123;23;19957;-79
2022/07/06 11:53:52;;;;;;;;;;;32.60;39.30;;;;;;6094563;23;20568;-85
2022/07/06 11:56:25;;;;;;;;;;;32.70;40.80;;;;;;6093699;23;19953;-81
2022/07/06 11:58:56;;;;;;;;;;;32.70;41.80;;;;;;6093066;23;19921;-85
2022/07/06 12:01:24;;;;;;;;;;;32.80;41.00;;;;;;6093215;23;19976;-78
2022/07/06 12:03:51;;;;;;;;;;;32.90;39.50;;;;;;6094235;23;19921;-85
2022/07/06 12:06:22;;;;;;;;;;;33.20;40.40;;;;;;6117096;23;20007;-79
2022/07/06 12:08:52;;;;;;;;;;;33.40;37.00;;;;;;6092916;23;19922;-85
2022/07/06 12:11:26;;;;;;;;;;;33.40;37.50;;;;;;6092493;23;20342;-79
2022/07/06 12:13:53;;;;;;;;;;;33.40;38.40;;;;;;6093270;23;19921;-81
2022/07/06 12:16:23;;;;;;;;;;;33.50;38.20;;;;;;6091951;23;19921;-78
2022/07/06 12:18:50;;;;;;;;;;;33.40;38.20;;;;;;6095109;23;19925;-85
2022/07/06 12:21:21;;;;;;;;;;;33.60;38.10;;;;;;6093156;23;19933;-84
2022/07/06 12:23:49;;;;;;;;;;;33.60;36.20;;;;;;6094719;23;19928;-79
2022/07/06 12:26:24;;;;;;;;;;;33.60;36.10;;;;;;6095501;23;19972;-79
2022/07/06 12:29:09;;;;;;;;;;;33.50;36.60;;;;;;6096142;23;19921;-84
2022/07/06 12:31:37;;;;;;;;;;;33.60;36.80;;;;;;6095388;23;20276;-82
2022/07/06 12:34:05;;;;;;;;;;;33.30;34.60;;;;;;6096084;23;19925;-84
2022/07/06 12:36:42;;;;;;;;;;;33.30;36.30;;;;;;6095684;23;19980;-85
2022/07/06 12:39:13;;;;;;;;;;;33.60;35.80;;;;;;6095876;23;20253;-79
2022/07/06 12:42:04;;;;;;;;;;;33.90;37.00;;;;;;6108087;23;20325;-80
2022/07/06 12:44:49;;;;;;;;;;;34.00;36.00;;;;;;6091582;23;19955;-80
2022/07/06 12:47:23;;;;;;;;;;;33.90;37.00;;;;;;6095706;23;19968;-85
2022/07/06 12:50:10;;;;;;;;;;;33.60;36.70;;;;;;6095687;23;19925;-79
2022/07/06 12:52:38;;;;;;;;;;;33.70;38.20;;;;;;6085308;23;20301;-78
2022/07/06 12:55:07;;;;;;;;;;;33.70;36.20;;;;;;6096086;23;19925;-81
2022/07/06 12:57:45;;;;;;;;;;;33.70;36.10;;;;;;6094645;23;20389;-78
2022/07/06 13:00:13;;;;;;;;;;;33.60;36.70;;;;;;6095679;23;19953;-80
2022/07/06 13:02:39;;;;;;;;;;;33.60;36.70;;;;;;6094608;23;19925;-78
2022/07/06 13:05:27;;;;;;;;;;;33.40;36.20;;;;;;6094805;23;19945;-79
2022/07/06 13:07:55;;;;;;;;;;;33.40;38.10;;;;;;6096061;23;19921;-79
2022/07/06 13:10:22;;;;;;;;;;;33.60;38.40;;;;;;6129901;23;19968;-79
2022/07/06 13:12:50;;;;;;;;;;;34.10;38.30;;;;;;6129864;23;20348;-81
2022/07/06 13:15:16;;;;;;;;;;;34.50;38.00;;;;;;6129552;23;19920;-86
2022/07/06 13:17:44;;;;;;;;;;;34.80;36.50;;;;;;6129135;23;19921;-83
2022/07/06 13:20:12;;;;;;;;;;;35.10;36.80;;;;;;6129724;23;19921;-83
2022/07/06 13:22:39;;;;;;;;;;;35.30;34.20;;;;;;6128947;23;19929;-80
2022/07/06 13:25:06;;;;;;;;;;;35.10;34.30;;;;;;6129846;23;19920;-83
2022/07/06 13:27:33;;;;;;;;;;;34.80;35.60;;;;;;6128812;23;19971;-82
2022/07/06 13:30:00;;;;;;;;;;;34.80;35.90;;;;;;6129985;23;19924;-84
2022/07/06 13:32:26;;;;;;;;;;;34.80;36.40;;;;;;6128646;23;19921;-79
2022/07/06 13:34:53;;;;;;;;;;;34.70;36.80;;;;;;6129560;23;19921;-79
2022/07/06 13:37:23;;;;;;;;;;;34.70;36.80;;;;;;6128453;23;19946;-80
2022/07/06 13:39:50;;;;;;;;;;;34.70;36.50;;;;;;6155261;23;20336;-79
2022/07/06 13:42:16;;;;;;;;;;;34.80;36.50;;;;;;6127495;23;19920;-83
2022/07/06 13:44:43;;;;;;;;;;;34.90;35.50;;;;;;6127222;23;20296;-81
2022/07/06 13:47:10;;;;;;;;;;;34.70;36.70;;;;;;6127483;23;20252;-80
2022/07/06 13:49:37;;;;;;;;;;;34.60;37.00;;;;;;6127196;23;19925;-82
2022/07/06 13:52:04;;;;;;;;;;;34.70;36.50;;;;;;6127928;23;20066;-79
2022/07/06 13:54:31;;;;;;;;;;;34.90;36.70;;;;;;6125919;23;19920;-79
2022/07/06 13:57:01;;;;;;;;;;;35.10;35.60;;;;;;6128295;23;19971;-80
2022/07/06 13:59:28;;;;;;;;;;;35.30;35.80;;;;;;6127367;23;19928;-79
2022/07/06 14:01:55;;;;;;;;;;;35.10;36.20;;;;;;6128094;23;19975;-80
2022/07/06 14:04:22;;;;;;;;;;;35.00;34.80;;;;;;6125267;23;19967;-81
2022/07/06 14:06:48;;;;;;;;;;;35.00;36.50;;;;;;6128349;23;19972;-80
2022/07/06 14:09:15;;;;;;;;;;;35.30;36.50;;;;;;6127854;23;19974;-81
2022/07/06 14:11:42;;;;;;;;;;;35.40;36.50;;;;;;6127773;23;19920;-80
2022/07/06 14:14:09;;;;;;;;;;;35.30;35.60;;;;;;6128061;23;19921;-81
2022/07/06 14:16:36;;;;;;;;;;;35.50;35.80;;;;;;6127766;23;20229;-80
2022/07/06 14:19:02;;;;;;;;;;;35.70;34.40;;;;;;6128122;23;19925;-79
2022/07/06 14:21:30;;;;;;;;;;;35.80;34.40;;;;;;6127646;23;19928;-80
2022/07/06 14:23:57;;;;;;;;;;;35.80;33.60;;;;;;6128355;23;19924;-80
2022/07/06 14:26:24;;;;;;;;;;;35.50;33.20;;;;;;6127533;23;19921;-81
2022/07/06 14:28:51;;;;;;;;;;;35.40;34.70;;;;;;6126754;23;20003;-79
2022/07/06 14:31:18;;;;;;;;;;;35.20;33.30;;;;;;6125066;23;19929;-79
2022/07/06 14:33:48;;;;;;;;;;;35.10;35.30;;;;;;6125350;23;19928;-83
2022/07/06 14:36:15;;;;;;;;;;;34.90;34.40;;;;;;6151023;23;19929;-79
2022/07/06 14:38:42;;;;;;;;;;;34.60;34.90;;;;;;6125635;23;19944;-85
2022/07/06 14:41:08;;;;;;;;;;;34.40;36.10;;;;;;6126776;23;19991;-80
2022/07/06 14:43:36;;;;;;;;;;;34.10;36.40;;;;;;6124654;23;19944;-79
2022/07/06 14:46:03;;;;;;;;;;;33.90;36.40;;;;;;6151997;23;19921;-84
2022/07/06 14:48:30;;;;;;;;;;;33.80;37.40;;;;;;6126552;23;20019;-80
2022/07/06 14:50:57;;;;;;;;;;;33.80;37.10;;;;;;6126998;23;19925;-78
2022/07/06 14:53:24;;;;;;;;;;;33.80;37.70;;;;;;6124708;23;20003;-80
2022/07/06 14:55:52;;;;;;;;;;;34.00;37.40;;;;;;6154635;23;20387;-84
2022/07/06 14:58:19;;;;;;;;;;;34.10;36.40;;;;;;6128735;23;19979;-81
2022/07/06 15:00:46;;;;;;;;;;;34.10;36.90;;;;;;6153695;23;19921;-79
2022/07/06 15:03:13;;;;;;;;;;;34.00;36.90;;;;;;6128383;23;19920;-80
2022/07/06 15:05:43;;;;;;;;;;;33.90;37.40;;;;;;6153581;23;20009;-80
2022/07/06 15:08:10;;;;;;;;;;;34.00;37.60;;;;;;6128005;23;19925;-79
2022/07/06 15:10:37;;;;;;;;;;;34.30;37.40;;;;;;6128088;23;19948;-82
2022/07/06 15:13:05;;;;;;;;;;;34.50;35.30;;;;;;6128720;23;20337;-83
2022/07/06 15:15:31;;;;;;;;;;;34.40;34.50;;;;;;6127027;23;19921;-79
2022/07/06 15:18:18;;;;;;;;;;;34.10;34.70;;;;;;6132218;23;20000;-80
2022/07/06 15:20:46;;;;;;;;;;;34.10;35.00;;;;;;6155044;23;19980;-82
2022/07/06 15:23:12;;;;;;;;;;;34.20;35.40;;;;;;6127619;23;20403;-80
2022/07/06 15:25:39;;;;;;;;;;;34.30;35.00;;;;;;6125260;23;20333;-80
2022/07/06 15:28:06;;;;;;;;;;;34.40;34.70;;;;;;6127193;23;20349;-80
2022/07/06 15:30:33;;;;;;;;;;;34.70;34.90;;;;;;6127415;23;20296;-80
2022/07/06 15:33:00;;;;;;;;;;;34.90;34.30;;;;;;6154289;23;20430;-81
2022/07/06 15:35:26;;;;;;;;;;;35.30;33.20;;;;;;6125091;23;19921;-80